Z E U S — IFWZ — position and weather

sailwx.info

Track history (hours):
 
Tides and Currents Weather Stations Pressure Air Temp Water Temp Dewpoint Dewpoint Depression Visibility Wind Speed Wind Dir Waves Ship Positions

Z E U S

Last reported at 2015-Sep-03 13:17 UTC. Time now 2015-Sep-03 15:18 UTC.
Position N 38°01' E 012°31'.

Length 53 m; draft 2.5 m.

Type: Ship (hazmat cat B). MMSI: 247072100.

Date/timePositionNaut miles runAvg speedWind from/ knotsBaromVisibWave heightAir tempDewpointWater temp
2015-Sep-03 13:17N 38°01' E 012°31'2 2.8
2015-Sep-03 12:33N 37°60' E 012°28'8 7.9
2015-Sep-03 11:33N 37°56' E 012°20'1 1.3
2015-Sep-03 10:33N 37°57' E 012°21'9 8.7
2015-Sep-03 09:33N 38°01' E 012°31'4 4.2
2015-Sep-03 08:33N 37°59' E 012°26'6 5.7
2015-Sep-03 07:33N 37°56' E 012°20'0 0.0
2015-Sep-03 06:33N 37°56' E 012°20'7 6.5
2015-Sep-03 05:33N 37°59' E 012°27'3 3.4
2015-Sep-03 04:33N 38°01' E 012°31'0 0.0
2015-Sep-02 13:21N 38°01' E 012°31'2 2.1
2015-Sep-02 12:33N 37°60' E 012°29'8 8.2
2015-Sep-02 11:33N 37°56' E 012°20'0 0.0
2015-Sep-02 10:33N 37°56' E 012°20'9 9.5
2015-Sep-02 09:33N 38°00' E 012°30'1 0.7
2015-Sep-02 08:33N 38°00' E 012°29'9 8.8
2015-Sep-02 07:33N 37°56' E 012°20'3 2.6
2015-Sep-02 06:33N 37°58' E 012°20'4 3.9
2015-Sep-02 05:33N 37°59' E 012°25'5 4.8
2015-Sep-02 04:33N 38°01' E 012°31'10 0.4
2015-Sep-01 06:18N 37°56' E 012°20'5 7.3
2015-Sep-01 05:33N 37°59' E 012°25'5 4.6
2015-Sep-01 04:33N 38°01' E 012°31'0 0.0
2015-Aug-31 13:33N 38°01' E 012°31'6 6.1
2015-Aug-31 12:33N 37°58' E 012°24'4 3.9
2015-Aug-31 11:33N 37°56' E 012°20'0 0.0
2015-Aug-31 10:33N 37°56' E 012°20'10 9.8
2015-Aug-31 09:33N 38°01' E 012°30'4 3.8
2015-Aug-31 08:33N 37°59' E 012°26'6 6.0
2015-Aug-31 07:33N 37°56' E 012°20'0 0.0
2015-Aug-31 06:33N 37°56' E 012°20'9 9.0
2015-Aug-31 05:33N 38°00' E 012°30'1 1.0
2015-Aug-31 04:33N 38°01' E 012°31'0 0.0
2015-Aug-29 13:24N 38°01' E 012°31'3 4.1
2015-Aug-29 12:33N 37°59' E 012°27'7 6.5
2015-Aug-29 11:33N 37°56' E 012°20'0 0.3
2015-Aug-29 10:33N 37°56' E 012°20'10 9.7
2015-Aug-29 09:33N 38°01' E 012°31'2 2.4
2015-Aug-29 08:33N 37°59' E 012°28'8 7.5
2015-Aug-29 07:33N 37°56' E 012°20'1 0.7
2015-Aug-29 06:33N 37°57' E 012°20'6 5.9
2015-Aug-29 05:33N 37°59' E 012°27'4 3.6
2015-Aug-29 04:33N 38°01' E 012°31'0 0.0
2015-Aug-28 14:04N 38°01' E 012°31'0 0.0
2015-Aug-28 13:33N 38°01' E 012°31'0 0.0
2015-Aug-28 12:34N 38°01' E 012°31'2 1.5
2015-Aug-28 11:34N 37°60' E 012°29'8 8.4
2015-Aug-28 10:34N 37°56' E 012°20'3 3.3
2015-Aug-28 09:33N 37°58' E 012°16'9 8.9
2015-Aug-28 08:32N 37°58' E 012°05'4 3.2
2015-Aug-28 07:22N 37°58' E 012°09'8 9.6
2015-Aug-28 06:33N 37°57' E 012°19'6 5.8
2015-Aug-28 05:33N 37°59' E 012°26'4 4.0
2015-Aug-28 04:33N 38°01' E 012°31'0 0.0
2015-Aug-27 14:08N 38°01' E 012°31'0 0.0
2015-Aug-27 13:33N 38°01' E 012°31'2 2.0
2015-Aug-27 12:33N 37°60' E 012°29'8 8.0
2015-Aug-27 11:33N 37°56' E 012°20'0 0.0
2015-Aug-27 10:33N 37°56' E 012°20'10 9.6
2015-Aug-27 09:33N 38°01' E 012°30'2 2.1
2015-Aug-27 08:33N 37°59' E 012°28'7 7.6
2015-Aug-27 07:33N 37°56' E 012°20'0 0.0
2015-Aug-27 06:33N 37°56' E 012°20'5 5.3
2015-Aug-27 05:33N 37°58' E 012°25'5 4.6
2015-Aug-27 04:33N 38°01' E 012°31'0 0.0
2015-Aug-26 13:14N 38°01' E 012°31'3 4.0
2015-Aug-26 12:33N 37°59' E 012°28'7 7.3
2015-Aug-26 11:33N 37°56' E 012°20'1 0.9
2015-Aug-26 10:33N 37°57' E 012°20'9 9.2
2015-Aug-26 09:33N 38°01' E 012°31'7 7.0
2015-Aug-26 08:33N 37°57' E 012°23'2 2.4
2015-Aug-26 07:33N 37°58' E 012°20'0 0.5
2015-Aug-26 06:33N 37°57' E 012°20'4 3.9
2015-Aug-26 05:33N 37°58' E 012°25'5 5.5
2015-Aug-26 04:33N 38°01' E 012°31'0 0.0
2015-Aug-25 14:14N 38°01' E 012°31'0 0.0
2015-Aug-25 13:33N 38°01' E 012°31'0 0.0
2015-Aug-25 12:33N 38°01' E 012°31'0 0.4
2015-Aug-25 11:33N 38°01' E 012°30'10 9.7
2015-Aug-25 10:33N 37°56' E 012°19'3 3.0
2015-Aug-25 09:33N 37°58' E 012°16'9 9.3
2015-Aug-25 08:33N 37°58' E 012°05'1 1.3
2015-Aug-25 07:33N 37°58' E 012°06'1010.0
2015-Aug-25 06:33N 37°57' E 012°19'5 5.4
2015-Aug-25 05:33N 37°59' E 012°26'4 4.4
2015-Aug-25 04:33N 38°01' E 012°31'0 0.0
2015-Aug-24 13:33N 38°01' E 012°31'  
Track history (hours):
 
Tides and Currents Weather Stations Pressure Air Temp Water Temp Dewpoint Dewpoint Depression Visibility Wind Speed Wind Dir Waves Ship Positions

Z E U S

Last reported at 2015-Sep-03 13:17 UTC. Time now 2015-Sep-03 15:18 UTC.
Position N 38°01' E 012°31'.

Length 53 m; draft 2.5 m.

Type: Ship (hazmat cat B). MMSI: 247072100.

Date/timePositionNaut miles runAvg speedWind from/ knotsBaromVisibWave heightAir tempDewpointWater temp
2015-Sep-03 13:17N 38°01' E 012°31'2 2.8
2015-Sep-03 12:33N 37°60' E 012°28'8 7.9
2015-Sep-03 11:33N 37°56' E 012°20'1 1.3
2015-Sep-03 10:33N 37°57' E 012°21'9 8.7
2015-Sep-03 09:33N 38°01' E 012°31'4 4.2
2015-Sep-03 08:33N 37°59' E 012°26'6 5.7
2015-Sep-03 07:33N 37°56' E 012°20'0 0.0
2015-Sep-03 06:33N 37°56' E 012°20'7 6.5
2015-Sep-03 05:33N 37°59' E 012°27'3 3.4
2015-Sep-03 04:33N 38°01' E 012°31'0 0.0
2015-Sep-02 13:21N 38°01' E 012°31'2 2.1
2015-Sep-02 12:33N 37°60' E 012°29'8 8.2
2015-Sep-02 11:33N 37°56' E 012°20'0 0.0
2015-Sep-02 10:33N 37°56' E 012°20'9 9.5
2015-Sep-02 09:33N 38°00' E 012°30'1 0.7
2015-Sep-02 08:33N 38°00' E 012°29'9 8.8
2015-Sep-02 07:33N 37°56' E 012°20'3 2.6
2015-Sep-02 06:33N 37°58' E 012°20'4 3.9
2015-Sep-02 05:33N 37°59' E 012°25'5 4.8
2015-Sep-02 04:33N 38°01' E 012°31'10 0.4
2015-Sep-01 06:18N 37°56' E 012°20'5 7.3
2015-Sep-01 05:33N 37°59' E 012°25'5 4.6
2015-Sep-01 04:33N 38°01' E 012°31'0 0.0
2015-Aug-31 13:33N 38°01' E 012°31'6 6.1
2015-Aug-31 12:33N 37°58' E 012°24'4 3.9
2015-Aug-31 11:33N 37°56' E 012°20'0 0.0
2015-Aug-31 10:33N 37°56' E 012°20'10 9.8
2015-Aug-31 09:33N 38°01' E 012°30'4 3.8
2015-Aug-31 08:33N 37°59' E 012°26'6 6.0
2015-Aug-31 07:33N 37°56' E 012°20'0 0.0
2015-Aug-31 06:33N 37°56' E 012°20'9 9.0
2015-Aug-31 05:33N 38°00' E 012°30'1 1.0
2015-Aug-31 04:33N 38°01' E 012°31'0 0.0
2015-Aug-29 13:24N 38°01' E 012°31'3 4.1
2015-Aug-29 12:33N 37°59' E 012°27'7 6.5
2015-Aug-29 11:33N 37°56' E 012°20'0 0.3
2015-Aug-29 10:33N 37°56' E 012°20'10 9.7
2015-Aug-29 09:33N 38°01' E 012°31'2 2.4
2015-Aug-29 08:33N 37°59' E 012°28'8 7.5
2015-Aug-29 07:33N 37°56' E 012°20'1 0.7
2015-Aug-29 06:33N 37°57' E 012°20'6 5.9
2015-Aug-29 05:33N 37°59' E 012°27'4 3.6
2015-Aug-29 04:33N 38°01' E 012°31'0 0.0
2015-Aug-28 14:04N 38°01' E 012°31'0 0.0
2015-Aug-28 13:33N 38°01' E 012°31'0 0.0
2015-Aug-28 12:34N 38°01' E 012°31'2 1.5
2015-Aug-28 11:34N 37°60' E 012°29'8 8.4
2015-Aug-28 10:34N 37°56' E 012°20'3 3.3
2015-Aug-28 09:33N 37°58' E 012°16'9 8.9
2015-Aug-28 08:32N 37°58' E 012°05'4 3.2
2015-Aug-28 07:22N 37°58' E 012°09'8 9.6
2015-Aug-28 06:33N 37°57' E 012°19'6 5.8
2015-Aug-28 05:33N 37°59' E 012°26'4 4.0
2015-Aug-28 04:33N 38°01' E 012°31'0 0.0
2015-Aug-27 14:08N 38°01' E 012°31'0 0.0
2015-Aug-27 13:33N 38°01' E 012°31'2 2.0
2015-Aug-27 12:33N 37°60' E 012°29'8 8.0
2015-Aug-27 11:33N 37°56' E 012°20'0 0.0
2015-Aug-27 10:33N 37°56' E 012°20'10 9.6
2015-Aug-27 09:33N 38°01' E 012°30'2 2.1
2015-Aug-27 08:33N 37°59' E 012°28'7 7.6
2015-Aug-27 07:33N 37°56' E 012°20'0 0.0
2015-Aug-27 06:33N 37°56' E 012°20'5 5.3
2015-Aug-27 05:33N 37°58' E 012°25'5 4.6
2015-Aug-27 04:33N 38°01' E 012°31'0 0.0
2015-Aug-26 13:14N 38°01' E 012°31'3 4.0
2015-Aug-26 12:33N 37°59' E 012°28'7 7.3
2015-Aug-26 11:33N 37°56' E 012°20'1 0.9
2015-Aug-26 10:33N 37°57' E 012°20'9 9.2
2015-Aug-26 09:33N 38°01' E 012°31'7 7.0
2015-Aug-26 08:33N 37°57' E 012°23'2 2.4
2015-Aug-26 07:33N 37°58' E 012°20'0 0.5
2015-Aug-26 06:33N 37°57' E 012°20'4 3.9
2015-Aug-26 05:33N 37°58' E 012°25'5 5.5
2015-Aug-26 04:33N 38°01' E 012°31'0 0.0
2015-Aug-25 14:14N 38°01' E 012°31'0 0.0
2015-Aug-25 13:33N 38°01' E 012°31'0 0.0
2015-Aug-25 12:33N 38°01' E 012°31'0 0.4
2015-Aug-25 11:33N 38°01' E 012°30'10 9.7
2015-Aug-25 10:33N 37°56' E 012°19'3 3.0
2015-Aug-25 09:33N 37°58' E 012°16'9 9.3
2015-Aug-25 08:33N 37°58' E 012°05'1 1.3
2015-Aug-25 07:33N 37°58' E 012°06'1010.0
2015-Aug-25 06:33N 37°57' E 012°19'5 5.4
2015-Aug-25 05:33N 37°59' E 012°26'4 4.4
2015-Aug-25 04:33N 38°01' E 012°31'0 0.0
2015-Aug-24 13:33N 38°01' E 012°31'  

Dump ship's entire track history